Aeroporto :
LOGIN :

Iscrizione | Disclaimer

   EN    FR    IT 

 










Sommario :    VFR   VFR Marginale   IFR   IFR Intensivo   IFR Molto Intensivo
Visibilità : 
Base nubi : 
>= 8 km
>= 3000ft
5 / 8 km
1000 / 3000 ft
1500m / 5 km
500 / 1000 ft
800 / 1500m
200 / 500 ft
< 800m
< 200 ft
Simboli :   Temporali  Nebbia  Neve Forte  Precipitazioni Forti  Vento > 20 kt
SIGMETs :   Varie  Temporali  Ghiacco  Turbolenza  Onda orograficha  Ceneri Vulcaniche






- Altitudine del aeroporto : 242 ft
- Codice IATA : DUB


EIDW - Dublin

ULTIMO METAR :
  • 211300Z 12010KT 9999 BKN017 BKN019 BKN020 07/04 Q0999 NOSIG

METARs OBSOLETI :
  • 211230Z 13010KT 100V160 9999 BKN017 BKN019 BKN020 07/04 Q0999 NOSIG
  • 211200Z 13009KT 100V160 9999 BKN016 BKN019 07/04 Q0999 NOSIG
  • 211130Z 14012KT 9999 -RA BKN016 BKN018 07/04 Q1000 NOSIG
  • 211100Z 13010KT 110V170 9999 SCT016 BKN019 BKN022 07/05 Q1000 NOSIG
  • 211030Z 13010KT 100V160 6000 -RA SCT014 BKN016 OVC018 06/05 Q1000 NOSIG

TAF TAF EIDW
Valido dal 21 a 12 ore il 22 a 12 ore UTC


211100Z 2112/2212 12013KT 9999 -RA SCT012 BKN016
TEMPO 2112/2212 5000 BKN010
PROB40
TEMPO 2120/2206 3000 RA BKN005



MetMap, La meteo Aeronautica in un colpo d'occhio ! - Copyright ORBIFLY Dicembre 2007 - Disclaimer

ORBIFLY MET'MAP TEAM :

Programmazione e sviluppo : Alexandra Zaïnal
Concezione e sviluppo : Baudouin d'Aumeries
Co-Programmazione e sviluppo : Marc-Olivier Méhu
Supporto tecnico e logistico : Manuel Goepfert
Aiuto per la traduzione : Arnaldo La Scala

Contatto : metmap@orbifly.com




FONTI E CREDITI :

   NOAA